createdAt,value
2023-01-22T00:04:26.017Z,15.23
2023-01-22T00:09:28.819Z,11.15
2023-01-22T00:14:31.641Z,14.17
2023-01-22T00:19:34.426Z,13.80
2023-01-22T00:24:37.808Z,13.17
2023-01-22T00:29:41.338Z,14.88
2023-01-22T00:34:50.867Z,12.68
2023-01-22T00:39:54.190Z,14.47
2023-01-22T00:44:56.956Z,15.35
2023-01-22T00:49:59.972Z,15.03
2023-01-22T00:55:02.724Z,13.50
2023-01-22T01:00:06.125Z,5.32
2023-01-22T01:05:09.180Z,15.03
2023-01-22T01:10:12.239Z,11.95
2023-01-22T01:15:15.127Z,9.67
2023-01-22T01:20:18.223Z,13.07
2023-01-22T01:25:21.268Z,11.95
2023-01-22T01:30:24.088Z,8.93
2023-01-22T01:35:26.922Z,12.48
2023-01-22T01:40:29.649Z,12.80
2023-01-22T01:45:35.585Z,11.13
2023-01-22T01:50:41.298Z,8.52
2023-01-22T01:55:44.132Z,10.43
2023-01-22T02:00:52.307Z,11.13
2023-01-22T02:05:55.436Z,8.67
2023-01-22T02:10:59.133Z,8.98
2023-01-22T02:16:02.042Z,8.90
2023-01-22T02:21:04.906Z,9.20
2023-01-22T02:26:09.406Z,8.43
2023-01-22T02:31:12.646Z,5.83
2023-01-22T02:36:16.483Z,7.30
2023-01-22T02:41:19.406Z,8.88
2023-01-22T02:46:22.186Z,7.60
2023-01-22T02:51:26.899Z,7.50
2023-01-22T02:56:29.983Z,7.00
2023-01-22T03:01:33.761Z,4.93
2023-01-22T03:06:36.907Z,6.85
2023-01-22T03:11:41.971Z,8.93
2023-01-22T03:17:07.109Z,7.20
2023-01-22T03:22:11.311Z,7.03
2023-01-22T03:27:14.029Z,6.05
2023-01-22T03:32:17.593Z,9.23
2023-01-22T03:37:20.523Z,2.17
2023-01-22T03:42:27.157Z,7.00
2023-01-22T03:47:30.541Z,6.87
2023-01-22T03:52:33.598Z,6.30
2023-01-22T03:57:38.488Z,1.55
2023-01-22T04:02:41.271Z,5.90
2023-01-22T04:07:53.789Z,7.00
2023-01-22T04:13:01.278Z,3.17
2023-01-22T04:18:04.045Z,6.25
2023-01-22T04:23:22.827Z,5.65
2023-01-22T04:28:27.935Z,4.87
2023-01-22T04:33:32.467Z,6.03
2023-01-22T04:38:45.397Z,4.70
2023-01-22T04:43:48.060Z,6.13
2023-01-22T04:48:51.134Z,5.60
2023-01-22T04:53:55.038Z,5.87
2023-01-22T04:58:58.648Z,4.63
2023-01-22T05:04:02.875Z,6.97
2023-01-22T05:09:09.009Z,6.63
2023-01-22T05:14:31.930Z,4.47
2023-01-22T05:19:37.817Z,4.77
2023-01-22T05:24:45.466Z,4.18
2023-01-22T05:29:48.306Z,4.00
2023-01-22T05:35:06.860Z,4.30
2023-01-22T05:40:13.056Z,3.45
2023-01-22T05:45:15.881Z,4.90
2023-01-22T05:50:41.892Z,4.53
2023-01-22T05:55:46.859Z,3.83
2023-01-22T06:00:53.304Z,3.92
2023-01-22T06:06:08.759Z,1.05
2023-01-22T06:11:14.258Z,3.27
2023-01-22T06:16:21.119Z,4.00
2023-01-22T06:21:44.202Z,2.90
2023-01-22T06:26:47.584Z,4.35
2023-01-22T06:31:51.307Z,1.38
2023-01-22T06:36:55.467Z,2.87
2023-01-22T06:42:01.975Z,2.30
2023-01-22T06:47:05.495Z,3.07
2023-01-22T06:52:08.438Z,3.63
2023-01-22T06:57:11.189Z,4.50
2023-01-22T07:02:19.377Z,3.20
2023-01-22T07:07:22.039Z,1.63
2023-01-22T07:12:25.341Z,4.90
2023-01-22T07:17:28.174Z,3.00
2023-01-22T07:22:32.711Z,0.77
2023-01-22T07:27:36.309Z,4.30
2023-01-22T07:32:39.035Z,5.25
2023-01-22T07:37:41.816Z,4.30
2023-01-22T07:42:44.763Z,2.72
2023-01-22T07:47:59.807Z,3.60
2023-01-22T07:53:02.745Z,3.73
2023-01-22T07:58:07.269Z,2.90
2023-01-22T08:03:14.837Z,3.90
2023-01-22T08:08:23.144Z,3.45
2023-01-22T08:13:26.123Z,3.35
2023-01-22T08:18:29.480Z,4.07
2023-01-22T08:23:32.312Z,3.20
2023-01-22T08:28:35.132Z,2.33
2023-01-22T08:33:37.991Z,1.65
2023-01-22T08:38:40.770Z,2.35
2023-01-22T08:43:43.741Z,4.47
2023-01-22T08:48:46.540Z,2.33
2023-01-22T08:53:49.779Z,1.27
2023-01-22T08:58:53.149Z,5.18
2023-01-22T09:03:55.861Z,4.93
2023-01-22T09:08:59.627Z,4.47
2023-01-22T09:14:02.907Z,5.22
2023-01-22T09:19:07.132Z,4.63
2023-01-22T09:24:10.158Z,4.28
2023-01-22T09:29:12.987Z,5.15
2023-01-22T09:34:15.739Z,3.40
2023-01-22T09:39:19.019Z,5.45
2023-01-22T09:44:43.320Z,5.13
2023-01-22T09:50:01.037Z,4.30
2023-01-22T09:55:04.108Z,5.28
2023-01-22T10:00:20.068Z,5.03
2023-01-22T10:05:43.299Z,3.15
2023-01-22T10:10:46.843Z,1.60
2023-01-22T10:15:52.425Z,1.40
2023-01-22T10:20:56.610Z,4.00
2023-01-22T10:26:13.248Z,1.17
2023-01-22T10:31:33.736Z,4.40
2023-01-22T10:36:37.289Z,3.63
2023-01-22T10:41:41.531Z,3.83
2023-01-22T11:02:51.188Z,7.77
2023-01-22T11:08:07.303Z,7.47
2023-01-22T11:13:20.322Z,5.83
2023-01-22T11:18:45.853Z,4.97
2023-01-22T11:24:04.432Z,4.80
2023-01-22T11:29:15.791Z,6.03
2023-01-22T11:34:30.565Z,5.90
2023-01-22T11:39:45.707Z,7.47
2023-01-22T11:45:00.800Z,4.85
2023-01-22T11:50:20.023Z,3.55
2023-01-22T11:56:06.273Z,5.63
2023-01-22T12:01:36.759Z,5.47
2023-01-22T12:06:48.431Z,5.30
2023-01-22T12:12:17.460Z,5.40
2023-01-22T12:17:28.591Z,1.73
2023-01-22T12:22:57.271Z,5.23
2023-01-22T12:28:19.210Z,5.90
2023-01-22T12:33:26.186Z,3.80
2023-01-22T12:38:42.299Z,6.07
2023-01-22T12:44:27.389Z,6.20
2023-01-22T12:49:30.197Z,5.50
2023-01-22T12:54:36.482Z,6.78
2023-01-22T12:59:39.431Z,4.70
2023-01-22T13:04:42.385Z,3.83
2023-01-22T13:09:45.155Z,2.97
2023-01-22T13:14:50.001Z,6.83
2023-01-22T13:19:53.244Z,6.22
2023-01-22T13:24:58.717Z,5.17
2023-01-22T13:30:09.797Z,6.38
2023-01-22T13:35:15.497Z,7.15
2023-01-22T13:40:26.066Z,5.53
2023-01-22T13:45:32.064Z,4.03
2023-01-22T13:50:35.896Z,6.63
2023-01-22T13:55:38.677Z,6.70
2023-01-22T14:00:52.204Z,5.80
2023-01-22T14:06:13.412Z,4.53
2023-01-22T14:11:17.173Z,6.75
2023-01-22T14:16:20.041Z,6.23
2023-01-22T14:21:22.866Z,4.95
2023-01-22T14:26:25.786Z,6.22
2023-01-22T14:31:28.814Z,4.63
2023-01-22T14:36:31.907Z,6.88
2023-01-22T14:41:34.773Z,6.93
2023-01-22T14:46:38.438Z,7.68
2023-01-22T14:51:41.567Z,6.53
2023-01-22T14:56:44.397Z,7.60
2023-01-22T15:01:47.156Z,8.65
2023-01-22T15:06:49.981Z,7.43
2023-01-22T15:11:52.775Z,7.40
2023-01-22T15:16:55.557Z,6.78
2023-01-22T15:21:58.345Z,7.77
2023-01-22T15:27:01.208Z,8.57
2023-01-22T15:32:04.498Z,9.03
2023-01-22T15:37:07.586Z,9.98
2023-01-22T15:42:10.377Z,12.25
2023-01-22T15:47:14.678Z,10.80
2023-01-22T15:52:18.293Z,10.75
2023-01-22T15:57:21.128Z,10.70
2023-01-22T16:02:24.028Z,10.18
2023-01-22T16:07:26.812Z,12.07
2023-01-22T16:12:31.499Z,11.50
2023-01-22T16:17:34.300Z,15.98
2023-01-22T16:22:37.232Z,13.30
2023-01-22T16:27:39.966Z,11.48
2023-01-22T16:32:43.717Z,13.90
2023-01-22T16:37:46.526Z,12.27
2023-01-22T16:42:59.791Z,13.93
2023-01-22T16:52:05.092Z,11.57
2023-01-22T16:57:14.094Z,13.03
2023-01-22T17:02:19.444Z,13.45
2023-01-22T17:07:33.194Z,11.63
2023-01-22T17:12:36.717Z,12.75
2023-01-22T17:17:40.055Z,11.93
2023-01-22T17:22:43.007Z,11.83
2023-01-22T17:27:46.063Z,13.80
2023-01-22T17:32:49.013Z,13.50
2023-01-22T17:37:51.806Z,13.80
2023-01-22T17:42:55.022Z,15.55
2023-01-22T17:47:57.742Z,13.20
2023-01-22T17:53:00.515Z,14.95
2023-01-22T17:58:04.167Z,15.10
2023-01-22T18:03:06.879Z,12.18
2023-01-22T18:08:09.814Z,12.93
2023-01-22T18:13:12.717Z,13.70
2023-01-22T18:18:16.981Z,13.70
2023-01-22T18:23:19.894Z,13.33
2023-01-22T18:28:24.907Z,11.80
2023-01-22T18:33:27.721Z,7.55
2023-01-22T18:38:31.432Z,8.70
2023-01-22T18:43:34.341Z,8.68
2023-01-22T18:48:37.751Z,4.90
2023-01-22T18:53:42.286Z,7.88
2023-01-22T18:58:46.307Z,7.68
2023-01-22T19:03:54.622Z,8.23
2023-01-22T19:09:12.760Z,8.32
2023-01-22T19:14:17.635Z,11.40
2023-01-22T19:19:21.911Z,9.70
2023-01-22T19:24:28.409Z,9.18
2023-01-22T19:29:31.218Z,8.63
2023-01-22T19:34:34.108Z,9.85
2023-01-22T19:39:37.510Z,7.63
2023-01-22T19:44:42.002Z,4.10
2023-01-22T19:49:45.112Z,3.92
2023-01-22T19:54:48.566Z,4.57
2023-01-22T19:59:57.575Z,2.83
2023-01-22T20:05:00.645Z,3.10
2023-01-22T20:10:04.579Z,3.40
2023-01-22T20:15:08.250Z,3.75
2023-01-22T20:20:11.721Z,4.53
2023-01-22T20:25:15.673Z,4.60
2023-01-22T20:30:18.832Z,5.37
2023-01-22T20:35:21.808Z,5.93
2023-01-22T20:40:26.048Z,6.00
2023-01-22T20:45:28.863Z,7.67
2023-01-22T20:50:31.930Z,7.88
2023-01-22T20:55:35.202Z,6.60
2023-01-22T21:00:40.098Z,5.55
2023-01-22T21:05:43.181Z,5.90
2023-01-22T21:10:58.955Z,7.90
2023-01-22T21:16:14.213Z,7.35
2023-01-22T21:21:20.258Z,5.37
2023-01-22T21:26:26.365Z,4.88
2023-01-22T21:31:29.931Z,3.53
2023-01-22T21:36:36.751Z,5.23
2023-01-22T21:41:39.790Z,8.00
2023-01-22T21:46:44.438Z,7.73
2023-01-22T21:51:55.781Z,6.72
2023-01-22T21:56:58.650Z,4.93
2023-01-22T22:02:01.736Z,5.43
2023-01-22T22:07:04.557Z,5.95
2023-01-22T22:12:07.886Z,5.93
2023-01-22T22:17:11.112Z,6.00
2023-01-22T22:22:13.858Z,7.03
2023-01-22T22:27:16.530Z,6.37
2023-01-22T22:32:20.806Z,7.13
2023-01-22T22:37:23.508Z,7.20
2023-01-22T22:42:26.245Z,7.38
2023-01-22T22:47:29.341Z,6.88
2023-01-22T22:52:34.311Z,6.37
2023-01-22T22:57:37.009Z,4.88
2023-01-22T23:02:39.878Z,5.97
2023-01-22T23:07:42.490Z,6.43
2023-01-22T23:12:45.164Z,7.15
2023-01-22T23:17:47.811Z,7.77
2023-01-22T23:22:53.549Z,6.10
2023-01-22T23:27:56.248Z,7.30
2023-01-22T23:33:00.670Z,5.93
2023-01-22T23:38:03.454Z,6.28
2023-01-22T23:43:06.272Z,6.63
2023-01-22T23:48:09.001Z,5.45
2023-01-22T23:53:11.783Z,4.47
2023-01-22T23:58:15.336Z,6.30
